Terminal Aerodrome Forecast
Issued by NWS Sioux Falls, SD

Home | Current Version | Previous Version | Graphics & Text | Print | Product List | Glossary On
Versions: 1 2 3 4 5 6 7 8 9 10 11 12 13 14
000
FTUS43 KFSD 302329
TAFFSD
TAF
KFSD 302329Z 0100/0124 12007KT P6SM BKN250
     FM010600 14005KT P6SM FEW045 SCT250
     FM010900 00000KT P6SM BKN040
     FM011100 VRB03KT P6SM BKN028
     FM011800 12007KT P6SM BKN035=

USA.gov is the U.S. government's official web portal to all federal, state and local government web resources and services.